createdAt,value
2023-03-06T12:50:33.132Z,5.20
2023-03-06T13:02:26.605Z,6.20
2023-03-06T13:07:28.934Z,6.10
2023-03-06T13:12:20.286Z,6.50
2023-03-06T13:17:17.912Z,6.70
2023-03-06T13:22:20.448Z,6.30
2023-03-06T13:27:11.582Z,6.40
2023-03-06T13:32:02.744Z,6.40
2023-03-06T13:36:54.035Z,6.60
2023-03-06T13:41:47.334Z,6.80
2023-03-06T13:46:43.236Z,6.90
2023-03-06T13:51:35.912Z,6.50
2023-03-06T13:56:31.503Z,6.90
2023-03-06T14:01:24.923Z,7.30
2023-03-06T14:06:18.487Z,7.40
2023-03-06T14:11:20.959Z,7.10
2023-03-06T14:16:23.042Z,7.20
2023-03-06T14:21:16.505Z,7.10
2023-03-06T14:26:09.795Z,6.80
2023-03-06T14:31:03.169Z,6.50
2023-03-06T14:35:58.754Z,6.60
2023-03-06T14:40:56.464Z,6.70
2023-03-06T14:45:50.025Z,6.70
2023-03-06T14:51:43.546Z,6.80
2023-03-06T15:01:20.444Z,6.90
2023-03-06T15:14:42.551Z,7.00
2023-03-06T15:19:40.701Z,6.80
2023-03-06T15:24:40.987Z,6.90
2023-03-06T15:29:40.896Z,7.00
2023-03-06T15:34:33.884Z,7.00
2023-03-06T15:39:34.296Z,7.30
2023-03-06T15:44:25.413Z,7.40
2023-03-06T15:49:18.610Z,7.30
2023-03-06T15:54:21.078Z,7.30
2023-03-06T15:59:14.079Z,7.40
2023-03-06T16:04:23.527Z,7.30
2023-03-06T16:09:20.990Z,7.10
2023-03-06T16:14:24.122Z,7.20
2023-03-06T16:22:22.760Z,7.40
2023-03-06T16:27:22.785Z,7.10
2023-03-06T16:54:55.596Z,6.60
2023-03-06T16:59:51.591Z,6.30
2023-03-06T17:04:47.103Z,5.80
2023-03-06T17:09:44.585Z,5.50
2023-03-06T17:14:36.040Z,5.10
2023-03-06T17:19:27.088Z,4.80
2023-03-06T17:24:24.824Z,4.70
2023-03-06T17:29:18.343Z,4.60
2023-03-06T17:34:09.326Z,4.70
2023-03-06T17:39:04.544Z,4.70
2023-03-06T17:43:58.238Z,4.70
2023-03-06T17:48:51.545Z,4.80
2023-03-06T17:53:44.760Z,4.70
2023-03-06T17:58:40.429Z,4.80
2023-03-06T18:03:33.448Z,4.80
2023-03-06T18:08:45.314Z,4.60
2023-03-06T18:13:40.434Z,4.60
2023-03-06T18:18:54.080Z,4.50
2023-03-06T18:23:54.480Z,4.50
2023-03-06T18:28:47.503Z,4.50
2023-03-06T18:33:40.775Z,4.40
2023-03-06T18:38:36.382Z,4.40
2023-03-06T18:43:29.946Z,4.40
2023-03-06T18:48:23.477Z,4.30
2023-03-06T18:53:21.329Z,4.20
2023-03-06T18:58:21.059Z,4.20
2023-03-06T19:03:18.960Z,4.20
2023-03-06T19:08:10.248Z,4.20
2023-03-06T19:13:03.579Z,4.10
2023-03-06T19:17:56.565Z,4.00
2023-03-06T19:22:56.677Z,4.00
2023-03-06T19:27:56.786Z,4.00
2023-03-06T19:32:52.485Z,3.90
2023-03-06T19:37:45.665Z,3.80
2023-03-06T19:42:41.468Z,3.80
2023-03-06T19:47:37.334Z,3.80
2023-03-06T19:52:30.577Z,3.80
2023-03-06T19:57:23.494Z,3.80
2023-03-06T20:02:21.813Z,3.80
2023-03-06T20:07:21.438Z,3.80
2023-03-06T20:12:21.917Z,3.90
2023-03-06T20:17:14.882Z,3.80
2023-03-06T20:22:05.992Z,3.80
2023-03-06T20:26:57.048Z,3.80
2023-03-06T20:31:57.138Z,3.80
2023-03-06T20:36:57.248Z,3.80
2023-03-06T20:41:57.327Z,3.80
2023-03-06T20:46:48.460Z,3.80
2023-03-06T20:51:44.008Z,3.80
2023-03-06T20:56:37.297Z,3.80
2023-03-06T21:01:37.660Z,3.80
2023-03-06T21:06:28.899Z,3.80
2023-03-06T21:11:21.829Z,3.80
2023-03-06T21:16:15.149Z,3.80
2023-03-06T21:21:08.784Z,3.80
2023-03-06T21:26:02.063Z,3.70
2023-03-06T21:30:57.727Z,3.60
2023-03-06T21:35:48.755Z,3.70
2023-03-06T21:40:48.626Z,3.70
2023-03-06T21:45:42.050Z,3.60
2023-03-06T21:50:37.181Z,3.60
2023-03-06T21:55:30.806Z,3.70
2023-03-06T22:00:24.121Z,3.50
2023-03-06T22:05:17.463Z,3.50
2023-03-06T22:10:08.209Z,3.40
2023-03-06T22:14:59.623Z,3.30
2023-03-06T22:19:52.884Z,3.30
2023-03-06T22:24:53.014Z,3.30
2023-03-06T22:29:46.414Z,3.20
2023-03-06T22:34:44.351Z,3.30
2023-03-06T22:39:39.399Z,3.20
2023-03-06T22:44:39.761Z,3.10
2023-03-06T22:49:37.654Z,3.10
2023-03-06T22:54:28.768Z,3.00
2023-03-06T22:59:22.049Z,3.00
2023-03-06T23:04:13.144Z,3.00
2023-03-06T23:09:08.389Z,2.90
2023-03-06T23:14:06.561Z,2.80
2023-03-06T23:18:59.901Z,2.80
2023-03-06T23:23:53.192Z,2.70
2023-03-06T23:28:44.201Z,2.70
2023-03-06T23:33:39.755Z,2.70
2023-03-06T23:38:42.157Z,2.80
2023-03-06T23:43:44.762Z,2.80
2023-03-06T23:48:43.001Z,2.80
2023-03-06T23:53:40.623Z,2.80
2023-03-06T23:58:47.214Z,2.80
